Oihan López

Chefscout - Real Sociedad
2 Sep 2027
Donnerstag
Verarbeitung

Persönlichkeit

Anpassungsfähigkeit (6) Ehrgeiz (6) Kontroverse (12) Loyalität (19) Druck (11) Professionalität (1) Fairness (4) Temperament (18)

Profil

Trainerstil Demokratisch
Lizenz Kontinentale C
Entschlossenheit 8
Menschenführung 8
Motivation 11
Disziplin 8
Arbeitszufriedenheit
100%
Ermüdung
0%
Rolle Chefscout
Gehalt 98.1K p/W
Vertrag 14.03.2030

Leistung

Verhalten Gut
Trainingseffektivität
51%
Spielerentwicklung
60%
Verletzungsprävention
75%
Taktische Umsetzung
65%

Letzte Ereignisse

Spieler begutachtet 7T her
Nahm an einer Scouting-Besprechung teil 7T her
Nahm an einer Scouting-Besprechung teil 7T her
Spiel beobachtet 7T her
Nahm an einer Scouting-Besprechung teil 14T her
Nahm an einer Scouting-Besprechung teil 14T her
Legte dem Vorstand ein Dossier vor 14T her
Spiel beobachtet 14T her

Aktuell beobachtet

167
Spieler Verein Status Fähigkeit Vertrauen Beobachtet Zuletzt beobachtet Letzte Stimme
Mbekezeli Mbokazi Chicago Fire Aktiv 121 / 127 40% 1 23.08.2027 -
Ismail Al Suwaidi Al Fujairah Aktiv 118 / 127 40% 1 23.08.2027 -
Javi Rodríguez Celta Aktiv 148 / 148 40% 2 16.08.2027 -
Kike Salas Sevilla Aktiv 139 / 143 40% 1 16.08.2027 -
Finley McAllister Grimsby Town Aktiv 102 / 96 40% 1 09.08.2027 -
Tobias Slotsager Casertana Aktiv 112 / 116 40% 1 03.08.2027 -
Christ Inao Oulaï Fiorentina Aktiv 145 / 148 40% 1 03.08.2027 -
Jofre Torrents Ajax Aktiv 138 / 140 40% 2 26.07.2027 -
Juan Giménez Celta Aktiv 113 / 126 40% 2 26.07.2027 -
Johan Manzambi Newcastle United Aktiv 142 / 150 40% 1 19.07.2027 -
Jorrel Hato Chelsea Aktiv 160 / 158 40% 3 12.07.2027 -
Toni Tamarit Alverca Aktiv 116 / 129 40% 1 12.07.2027 -
João Simões Sporting CP Aktiv 143 / 137 40% 4 05.07.2027 -
Daniel Kelly Oxford United Aktiv 115 / 123 40% 1 05.07.2027 -
Ez Abde Girona Aktiv 157 / 154 40% 1 21.06.2027 -
Assane Diao Lazio Verhandlung 157 / 150 40% 1 21.06.2027 -
Maren Kefas Plateau United Aktiv 85 / 97 40% 1 16.06.2027 -
Iwan Morgan Grimsby Town Verloren 121 / 116 40% 1 16.06.2027 -
Reuben Reid Barnsley Aktiv 90 / 106 40% 1 14.06.2027 -
Fletcher Holman Swindon Town Aktiv 84 / 87 40% 1 14.06.2027 -
Tiziano Dornell Danubio Aktiv 110 / 127 40% 1 07.06.2027 -
Othmane Maamma Watford Aktiv 121 / 123 40% 2 06.06.2027 -
Luís Guilherme Sporting CP Verloren 138 / 130 40% 1 03.06.2027 -
Mfundo Vilakazi Kaizer Chiefs Verloren 121 / 112 40% 1 02.06.2027 -
Rodrigo Mora AS Roma Aktiv 133 / 141 40% 1 01.06.2027 -
Raúl Rangel Sporting CP Aktiv 129 / 139 40% 2 30.05.2027 -
Beau Reus Waasland-Beveren Aktiv 137 / 126 40% 5 29.05.2027 -
Berke Özer LOSC Lille Aktiv 135 / 137 40% 2 29.05.2027 -
Ricky Atletico Venezuela Aktiv 105 / 104 40% 1 29.05.2027 -
Darryl Bakola Padova Aktiv 99 / 116 40% 1 29.05.2027 -
Radek Vítek Middlesbrough Aktiv 147 / 144 40% 4 27.05.2027 -
Franco Israel Torino Aktiv 132 / 134 40% 2 27.05.2027 -
Mads Hermansen West Ham United Aktiv 152 / 142 40% 4 24.05.2027 -
Erick Reyes Toluca Aktiv 140 / 137 40% 3 24.05.2027 -
Jonathan Fischer FC Metz Aktiv 124 / 136 40% 2 23.05.2027 -
Kevin Vazquez Cruz Azul Aktiv 132 / 144 40% 9 22.05.2027 -
Felipe Parra Envigado Aktiv 120 / 127 40% 1 22.05.2027 -
Lorenzo Palmisani Frosinone Aktiv 125 / 138 40% 6 20.05.2027 -
Yusi Alavés Aktiv 119 / 138 40% 2 20.05.2027 -
Ernie Weaver AFC Wimbledon Aktiv 99 / 122 40% 1 20.05.2027 -
Fernando Tapia Club America Aktiv 123 / 143 40% 1 20.05.2027 -
Ethan Williams Peterborough United Aktiv 109 / 113 40% 1 20.05.2027 -
Thomas De Bruyne Mouscron Aktiv 134 / 126 40% 2 18.05.2027 -
Keisuke Osako Sanfrecce Hiroshima Aktiv 151 / 132 40% 1 14.05.2027 -
Julen Agirrezabala Racing Santander Aktiv 150 / 146 40% 5 11.05.2027 -
João Teixeira Porto Aktiv 115 / 112 40% 3 10.05.2027 -
Davide Bartesaghi AC Milan Aktiv 121 / 132 40% 1 10.05.2027 -
Robin Roefs Sunderland Aktiv 148 / 144 40% 2 09.05.2027 -
Joan García Barcelona Aktiv 179 / 161 40% 3 06.05.2027 -
Bento Al-Nassr Aktiv 146 / 143 40% 2 04.05.2027 -
Diego Romero Universitario Aktiv 114 / 132 40% 2 02.05.2027 -
Yehvann Diouf OGC Nice Aktiv 143 / 139 40% 2 28.04.2027 -
Senne Lammens Manchester United Aktiv 151 / 147 40% 3 26.04.2027 -
Cezary Miszta Rio Ave Aktiv 142 / 132 40% 4 25.04.2027 -
Warren Zaïre-Emery Paris Saint-Germain Aktiv 146 / 167 40% 3 21.04.2027 -
Edoardo Motta Lazio Aktiv 122 / 127 40% 1 19.04.2027 -
Christos Mouzakitis Hull City Aktiv 120 / 139 40% 2 16.04.2027 -
Guillaume Restes Toulouse FC Aktiv 136 / 145 40% 4 16.04.2027 -
Matías Gómez Granada Aktiv 102 / 125 40% 2 16.04.2027 -
Maduka Okoye Udinese Aktiv 147 / 140 40% 3 10.04.2027 -
Kostantis Tzolakis Hull City Aktiv 139 / 146 40% 1 07.04.2027 Mehr Infos nötig
Niklas Hedl Zurich Aktiv 123 / 120 40% 1 05.04.2027 -
Guilherme Fernandes Córdoba Aktiv 133 / 128 40% 2 04.04.2027 -
Ibrahim Maza Bayer Leverkusen Aktiv 146 / 149 40% 2 01.04.2027 -
Rayan Bournemouth Aktiv 125 / 143 40% 1 28.03.2027 -
Anatolii Trubin Juventus Aktiv 149 / 158 40% 1 24.03.2027 -
Josh King Chelsea Aktiv 148 / 139 40% 1 23.03.2027 -
James Trafford Leeds United Aktiv 139 / 147 40% 2 20.03.2027 -
Pablo Campos Levante Aktiv 137 / 127 40% 1 19.03.2027 -
Lucas Høgsberg RC Strasbourg Aktiv 143 / 142 40% 2 17.03.2027 -
Joaquin Seys Club Brugge Aktiv 121 / 126 40% 1 17.03.2027 -
Didier Mercier Chamois Niortais Aktiv 118 / 123 40% 1 16.03.2027 -
Michael Cooper Sheffield United Aktiv 130 / 130 40% 1 16.03.2027 -
Jonmi Magunagoitia Eibar Aktiv 117 / 133 40% 2 12.03.2027 -
David Ozoh Derby County Aktiv 126 / 127 40% 1 12.03.2027 -
Riley Owen Trento Aktiv 99 / 114 40% 1 11.03.2027 -
Bernardo Lima Porto Aktiv 96 / 100 40% 1 11.03.2027 -
Jan Virgili Club Brugge Aktiv 134 / 137 40% 1 10.03.2027 -
James Dornelly Peterborough United Aktiv 101 / 108 40% 2 09.03.2027 -
Senny Mayulu Paris Saint-Germain Aktiv 134 / 156 40% 1 09.03.2027 -
Yussif Saidu Zaragoza Aktiv 122 / 121 40% 2 08.03.2027 -
Jamie Cumming Oxford United Aktiv 119 / 125 40% 1 05.03.2027 -
Manuel Roffo Cerro Porteno Aktiv 141 / 133 40% 1 05.03.2027 -
Elías Rafn Ólafsson FC Midtjylland Aktiv 122 / 115 40% 1 04.03.2027 -
Sascha Britschgi Padova Aktiv 108 / 132 40% 1 02.03.2027 -
Dylan Lawlor Cardiff City Aktiv 124 / 118 40% 2 01.03.2027 -
Mateusz Kochalski Dynamo Kyiv Aktiv 119 / 138 40% 1 28.02.2027 -
Grégoire Coudert Burnley Aktiv 139 / 127 40% 1 26.02.2027 -
Deniz Ertaş Konyaspor Aktiv 113 / 115 40% 1 21.02.2027 -
Keagan Tau Ajax Cape Town Aktiv 83 / 111 40% 1 17.02.2027 -
Lazar Carević Famalicao Aktiv 140 / 134 40% 1 16.02.2027 -
Caleb Yirenkyi Coventry City Aktiv 129 / 142 40% 1 10.02.2027 -
Daniel Vernattus Metalist Aktiv 73 / 102 40% 1 07.02.2027 -
Patrick Sequeira Casa Pia Aktiv 132 / 132 40% 1 05.02.2027 -
Andriy Lunin Real Madrid Aktiv 161 / 155 40% 1 02.02.2027 -
Tiago Santos LOSC Lille Aktiv 143 / 138 40% 1 28.01.2027 -
Omar Campos Cruz Azul Aktiv 117 / 132 40% 3 30.12.2026 -
Brahim Díaz Real Madrid Aktiv 151 / 152 40% 3 30.12.2026 -
Kang-In Lee Atlético Madrid Aktiv 151 / 156 40% 4 29.12.2026 -
Giacomo Raspadori Atalanta Aktiv 151 / 149 40% 1 29.12.2026 -
Paulinho Palmeiras Aktiv 138 / 140 40% 4 26.12.2026 -
Pablo Barrios Atlético Madrid Aktiv 161 / 166 40% 3 23.12.2026 -
Efraín Álvarez Guadalajara Aktiv 127 / 127 40% 2 23.12.2026 -
Erick Sánchez OGC Nice Aktiv 132 / 136 40% 5 22.12.2026 -
Ramiro Sordo Santos Laguna Aktiv 104 / 114 40% 1 22.12.2026 -
Callum Hudson-Odoi Nottingham Forest Aktiv 152 / 144 40% 1 21.12.2026 -
Jonathan Dubasin Osasuna Aktiv 148 / 136 40% 1 21.12.2026 -
Álex Baena Atlético Madrid Aktiv 159 / 158 40% 2 18.12.2026 -
Iliman N'Diaye Everton Aktiv 157 / 151 40% 3 17.12.2026 -
Mason Mount Manchester United Aktiv 142 / 149 40% 1 17.12.2026 -
Ozziel Herrera Tigres Aktiv 130 / 133 40% 2 15.12.2026 -
Eduardo Dos Santos Veracruz Aktiv 108 / 113 40% 2 14.12.2026 -
Jude Bellingham Real Madrid Aktiv 165 / 175 40% 1 14.12.2026 -
Matt O'Riley Brighton Aktiv 143 / 141 40% 1 12.12.2026 -
Gabriel Martinelli Brighton Aktiv 163 / 159 40% 2 10.12.2026 -
Diego Lainez Tigres Aktiv 112 / 119 40% 4 08.12.2026 -
Marquinhos Spartak Moscow Aktiv 143 / 122 40% 1 08.12.2026 -
Bryan Gil Girona Aktiv 135 / 145 40% 1 05.12.2026 -
Nicolas Jackson Aston Villa Aktiv 139 / 151 40% 1 05.12.2026 -
Tani Oluwaseyi Villarreal Aktiv 136 / 143 40% 1 02.12.2026 -
Kevin Fulham Aktiv 137 / 148 40% 1 01.12.2026 -
Tom Fellows Southampton Aktiv 129 / 127 40% 2 27.11.2026 -
Pedro Vite Pumas UNAM Aktiv 135 / 115 40% 1 27.11.2026 -
Martin Ødegaard Arsenal Aktiv 177 / 182 40% 3 24.11.2026 -
Nicolás Castro Toluca Aktiv 121 / 125 40% 1 23.11.2026 -
Pol Lozano Espanyol Aktiv 141 / 143 40% 1 23.11.2026 -
Rodrygo Real Madrid Aktiv 160 / 164 40% 2 21.11.2026 -
Ramiro Ruiz Rodríguez Atlético Tucumán Aktiv 127 / 126 40% 3 21.11.2026 -
Joaquín Gho Argentinos Juniors Aktiv 118 / 123 40% 3 18.11.2026 -
Ezequiel Bullaude Santos Laguna Aktiv 135 / 129 40% 1 17.11.2026 -
Brian Gutiérrez Guadalajara Aktiv 120 / 132 40% 1 16.11.2026 -
Alex Luna Instituto Aktiv 129 / 129 40% 1 12.11.2026 -
Rayan Cherki Manchester City Aktiv 171 / 163 40% 2 11.11.2026 -
Carlos Vicente Birmingham Aktiv 152 / 136 40% 3 10.11.2026 -
Johnny Cardoso Atlético Madrid Aktiv 154 / 157 40% 1 10.11.2026 -
Tiago Palacios Estudiantes Aktiv 123 / 126 40% 2 09.11.2026 -
Carlos Palacios Boca Juniors Aktiv 123 / 129 40% 3 05.11.2026 -
João Pedro Chelsea Aktiv 163 / 146 40% 1 05.11.2026 -
Aimar Osasuna Aktiv 136 / 143 40% 1 23.10.2026 -
Enzo Fernández Manchester City Aktiv 173 / 165 40% 1 22.10.2026 -
Matko Miljevic Racing Club Aktiv 136 / 121 40% 1 22.10.2026 -
Alan Velasco Boca Juniors Aktiv 129 / 122 40% 1 21.10.2026 -
Mateo Zuleta Once Caldas Aktiv 110 / 126 40% 1 20.10.2026 -
Hector Ramirez Newcastle United Aktiv 158 / 159 40% 3 19.10.2026 -
Bryan González Guadalajara Aktiv 111 / 136 40% 2 16.10.2026 -
Iker Benito Queretaro Aktiv 105 / 112 40% 2 14.10.2026 -
César Ibáñez Huracán Aktiv 129 / 118 40% 1 10.10.2026 -
Moisés Caicedo Chelsea Aktiv 168 / 177 40% 1 10.10.2026 -
Adalberto Carrasquilla Pumas UNAM Aktiv 113 / 115 40% 1 08.10.2026 -
Fidel Ambríz Monterrey Aktiv 109 / 126 40% 1 07.10.2026 -
Alexander Díaz Deportivo Riestra Aktiv 128 / 111 40% 1 01.10.2026 -
Santiago Montiel Independiente Aktiv 118 / 119 40% 2 28.09.2026 -
Brian Rodríguez Club America Aktiv 130 / 121 40% 1 28.09.2026 -
Axel Batista Quilmes Aktiv 122 / 120 40% 1 26.09.2026 -
Juan Manuel Zapata Envigado Aktiv 106 / 111 40% 1 26.09.2026 -
Matías Fernández Independiente Rivadavia Aktiv 132 / 127 40% 2 24.09.2026 -
Boubacar Kamara Aston Villa Aktiv 151 / 158 40% 1 24.09.2026 -
Juan Pablo Domínguez Leon Aktiv 119 / 128 40% 1 20.09.2026 -
Alexis Cuello San Lorenzo Aktiv 135 / 121 40% 1 16.09.2026 -
Kai Havertz Arsenal Aktiv 168 / 165 40% 1 11.09.2026 -
Eduardo Camavinga Real Madrid Aktiv 161 / 172 40% 1 10.09.2026 -
Pedri Barcelona Aktiv 181 / 175 40% 1 09.09.2026 -
Reece James Chelsea Aktiv 175 / 172 40% 1 08.09.2026 -
Alan Forneris Racing Club Aktiv 110 / 116 40% 1 31.08.2026 -
Gianluigi Donnarumma Manchester City Aktiv 172 / 177 40% 1 24.08.2026 -
Rafael Hornos Liverpool Montevideo Aktiv 99 / 89 40% 1 05.08.2026 -
Gabriel Jesus Barcelona Aktiv 144 / 147 40% 1 01.08.2026 -